sensor_id;sensor_type;location;lat;lon;timestamp;pressure;altitude;pressure_sealevel;temperature;humidity
23170;BME280;11753;43.144;24.714;2023-04-28T00:00:25;99871.31;;;10.54;48.99
23170;BME280;11753;43.144;24.714;2023-04-28T00:01:26;99869.09;;;10.50;49.01
23170;BME280;11753;43.144;24.714;2023-04-28T00:02:27;99874.97;;;10.43;49.47
23170;BME280;11753;43.144;24.714;2023-04-28T00:03:28;99882.00;;;10.53;49.17
23170;BME280;11753;43.144;24.714;2023-04-28T00:04:29;99884.81;;;10.41;49.05
23170;BME280;11753;43.144;24.714;2023-04-28T00:05:30;99880.50;;;10.40;48.56
23170;BME280;11753;43.144;24.714;2023-04-28T00:06:30;99878.34;;;10.36;48.36
23170;BME280;11753;43.144;24.714;2023-04-28T00:07:31;99878.34;;;10.36;48.22
23170;BME280;11753;43.144;24.714;2023-04-28T00:08:31;99886.66;;;10.31;48.41
23170;BME280;11753;43.144;24.714;2023-04-28T00:09:32;99890.78;;;10.34;48.70
23170;BME280;11753;43.144;24.714;2023-04-28T00:10:33;99885.00;;;10.30;48.66
23170;BME280;11753;43.144;24.714;2023-04-28T00:11:34;99883.34;;;10.29;48.78
23170;BME280;11753;43.144;24.714;2023-04-28T00:12:35;99892.19;;;10.28;47.98
23170;BME280;11753;43.144;24.714;2023-04-28T00:13:36;99890.84;;;10.24;48.31
23170;BME280;11753;43.144;24.714;2023-04-28T00:14:37;99888.06;;;10.16;48.05
23170;BME280;11753;43.144;24.714;2023-04-28T00:15:38;99890.41;;;10.19;48.07
23170;BME280;11753;43.144;24.714;2023-04-28T00:16:39;99894.31;;;10.25;48.56
23170;BME280;11753;43.144;24.714;2023-04-28T00:17:40;99894.31;;;10.15;48.80
23170;BME280;11753;43.144;24.714;2023-04-28T00:18:41;99891.63;;;9.87;49.41
23170;BME280;11753;43.144;24.714;2023-04-28T00:19:41;99895.06;;;9.78;49.46
23170;BME280;11753;43.144;24.714;2023-04-28T00:20:42;99891.50;;;9.79;49.22
23170;BME280;11753;43.144;24.714;2023-04-28T00:21:43;99892.88;;;9.64;49.83
23170;BME280;11753;43.144;24.714;2023-04-28T00:22:44;99886.84;;;9.34;49.73
23170;BME280;11753;43.144;24.714;2023-04-28T00:23:45;99897.06;;;9.47;50.09
23170;BME280;11753;43.144;24.714;2023-04-28T00:24:46;99892.94;;;9.45;50.63
23170;BME280;11753;43.144;24.714;2023-04-28T00:25:51;99895.69;;;9.53;50.46
23170;BME280;11753;43.144;24.714;2023-04-28T00:26:52;99895.56;;;9.45;50.35
23170;BME280;11753;43.144;24.714;2023-04-28T00:27:53;99893.75;;;9.55;50.30
23170;BME280;11753;43.144;24.714;2023-04-28T00:28:54;99893.47;;;9.58;49.85
23170;BME280;11753;43.144;24.714;2023-04-28T00:29:55;99888.91;;;9.60;48.35
23170;BME280;11753;43.144;24.714;2023-04-28T00:30:55;99892.09;;;9.54;49.75
23170;BME280;11753;43.144;24.714;2023-04-28T00:31:56;99887.78;;;9.53;49.93
23170;BME280;11753;43.144;24.714;2023-04-28T00:32:56;99888.22;;;9.48;49.81
23170;BME280;11753;43.144;24.714;2023-04-28T00:33:57;99885.31;;;9.51;49.87
23170;BME280;11753;43.144;24.714;2023-04-28T00:34:58;99877.69;;;9.48;50.06
23170;BME280;11753;43.144;24.714;2023-04-28T00:36:09;99893.59;;;9.47;50.01
23170;BME280;11753;43.144;24.714;2023-04-28T00:37:19;99881.88;;;9.51;49.89
23170;BME280;11753;43.144;24.714;2023-04-28T00:38:20;99883.25;;;9.45;48.77
23170;BME280;11753;43.144;24.714;2023-04-28T00:39:24;99884.06;;;9.46;49.44
23170;BME280;11753;43.144;24.714;2023-04-28T00:40:45;99888.75;;;9.42;49.85
23170;BME280;11753;43.144;24.714;2023-04-28T00:41:47;99887.94;;;9.42;50.17
23170;BME280;11753;43.144;24.714;2023-04-28T00:42:53;99891.81;;;9.37;50.03
23170;BME280;11753;43.144;24.714;2023-04-28T00:43:54;99898.19;;;9.45;50.07
23170;BME280;11753;43.144;24.714;2023-04-28T00:44:55;99904.00;;;9.38;49.68
23170;BME280;11753;43.144;24.714;2023-04-28T00:45:55;99886.28;;;9.41;49.56
23170;BME280;11753;43.144;24.714;2023-04-28T00:46:57;99895.13;;;9.40;50.16
23170;BME280;11753;43.144;24.714;2023-04-28T00:47:59;99897.47;;;9.43;50.23
23170;BME280;11753;43.144;24.714;2023-04-28T00:49:00;99900.53;;;9.48;50.11
23170;BME280;11753;43.144;24.714;2023-04-28T00:50:02;99903.16;;;9.48;48.90
23170;BME280;11753;43.144;24.714;2023-04-28T00:51:05;99899.16;;;9.44;49.32
23170;BME280;11753;43.144;24.714;2023-04-28T00:52:06;99909.22;;;9.48;49.45
23170;BME280;11753;43.144;24.714;2023-04-28T00:53:07;99896.81;;;9.50;49.68
23170;BME280;11753;43.144;24.714;2023-04-28T00:54:08;99900.94;;;9.53;49.51
23170;BME280;11753;43.144;24.714;2023-04-28T00:55:14;99904.09;;;9.56;49.63
23170;BME280;11753;43.144;24.714;2023-04-28T00:56:15;99907.03;;;9.53;49.57
23170;BME280;11753;43.144;24.714;2023-04-28T00:57:16;99902.59;;;9.54;49.62
23170;BME280;11753;43.144;24.714;2023-04-28T00:58:16;99912.81;;;9.57;49.88
23170;BME280;11753;43.144;24.714;2023-04-28T00:59:19;99914.50;;;9.58;49.47
23170;BME280;11753;43.144;24.714;2023-04-28T01:00:20;99912.69;;;9.49;49.77
23170;BME280;11753;43.144;24.714;2023-04-28T01:01:21;99920.56;;;9.49;50.10
23170;BME280;11753;43.144;24.714;2023-04-28T01:02:22;99912.84;;;9.47;50.14
23170;BME280;11753;43.144;24.714;2023-04-28T01:03:23;99915.72;;;9.54;49.98
23170;BME280;11753;43.144;24.714;2023-04-28T01:04:25;99907.84;;;9.54;50.12
23170;BME280;11753;43.144;24.714;2023-04-28T01:05:27;99914.75;;;9.55;50.23
23170;BME280;11753;43.144;24.714;2023-04-28T01:06:28;99919.47;;;9.61;50.16
23170;BME280;11753;43.144;24.714;2023-04-28T01:07:31;99910.91;;;9.59;49.90
23170;BME280;11753;43.144;24.714;2023-04-28T01:08:32;99916.16;;;9.59;49.59
23170;BME280;11753;43.144;24.714;2023-04-28T01:09:34;99922.66;;;9.55;49.99
23170;BME280;11753;43.144;24.714;2023-04-28T01:10:34;99925.00;;;9.58;50.40
23170;BME280;11753;43.144;24.714;2023-04-28T01:11:35;99918.06;;;9.57;50.17
23170;BME280;11753;43.144;24.714;2023-04-28T01:12:37;99921.69;;;9.56;50.20
23170;BME280;11753;43.144;24.714;2023-04-28T01:13:38;99909.50;;;9.55;50.29
23170;BME280;11753;43.144;24.714;2023-04-28T01:14:39;99912.56;;;9.60;50.45
23170;BME280;11753;43.144;24.714;2023-04-28T01:15:42;99907.88;;;9.44;49.70
23170;BME280;11753;43.144;24.714;2023-04-28T01:16:43;99904.00;;;9.38;49.51
23170;BME280;11753;43.144;24.714;2023-04-28T01:17:45;99907.88;;;9.15;49.93
23170;BME280;11753;43.144;24.714;2023-04-28T01:18:47;99905.63;;;9.01;50.70
23170;BME280;11753;43.144;24.714;2023-04-28T01:19:51;99901.75;;;8.95;50.87
23170;BME280;11753;43.144;24.714;2023-04-28T01:20:55;99914.97;;;8.84;51.10
23170;BME280;11753;43.144;24.714;2023-04-28T01:21:56;99915.81;;;8.85;51.44
23170;BME280;11753;43.144;24.714;2023-04-28T01:23:00;99908.84;;;8.64;51.76
23170;BME280;11753;43.144;24.714;2023-04-28T01:24:07;99911.84;;;8.50;52.21
23170;BME280;11753;43.144;24.714;2023-04-28T01:25:17;99914.91;;;8.55;52.50
23170;BME280;11753;43.144;24.714;2023-04-28T01:26:30;99911.63;;;8.32;52.56
23170;BME280;11753;43.144;24.714;2023-04-28T01:27:39;99915.41;;;8.39;52.79
23170;BME280;11753;43.144;24.714;2023-04-28T01:28:51;99916.16;;;8.30;52.54
23170;BME280;11753;43.144;24.714;2023-04-28T01:29:55;99911.25;;;8.37;52.53
23170;BME280;11753;43.144;24.714;2023-04-28T01:31:05;99909.31;;;8.39;53.30
23170;BME280;11753;43.144;24.714;2023-04-28T01:32:35;99919.81;;;8.39;53.30
23170;BME280;11753;43.144;24.714;2023-04-28T01:33:44;99913.56;;;8.09;53.43
23170;BME280;11753;43.144;24.714;2023-04-28T01:34:55;99910.97;;;8.09;53.67
23170;BME280;11753;43.144;24.714;2023-04-28T01:36:11;99922.00;;;8.13;53.39
23170;BME280;11753;43.144;24.714;2023-04-28T01:37:14;99917.59;;;8.13;53.55
23170;BME280;11753;43.144;24.714;2023-04-28T01:39:39;99916.19;;;8.09;54.45
23170;BME280;11753;43.144;24.714;2023-04-28T01:42:33;99917.59;;;8.13;54.30
23170;BME280;11753;43.144;24.714;2023-04-28T01:43:34;99923.88;;;8.22;54.09
23170;BME280;11753;43.144;24.714;2023-04-28T01:44:35;99922.44;;;8.18;54.20
23170;BME280;11753;43.144;24.714;2023-04-28T01:45:57;99919.97;;;8.16;54.30
23170;BME280;11753;43.144;24.714;2023-04-28T01:47:11;99915.41;;;8.18;54.37
23170;BME280;11753;43.144;24.714;2023-04-28T01:48:35;99917.84;;;8.10;54.79
23170;BME280;11753;43.144;24.714;2023-04-28T01:49:41;99918.56;;;8.12;55.00
23170;BME280;11753;43.144;24.714;2023-04-28T01:50:47;99916.50;;;8.16;55.07
23170;BME280;11753;43.144;24.714;2023-04-28T01:51:51;99919.38;;;8.13;55.06
23170;BME280;11753;43.144;24.714;2023-04-28T01:52:55;99919.38;;;8.13;55.15
23170;BME280;11753;43.144;24.714;2023-04-28T01:55:40;99919.44;;;8.22;55.49
23170;BME280;11753;43.144;24.714;2023-04-28T01:57:04;99917.75;;;8.21;55.24
23170;BME280;11753;43.144;24.714;2023-04-28T01:58:09;99915.13;;;8.21;55.42
23170;BME280;11753;43.144;24.714;2023-04-28T01:59:10;99919.25;;;8.14;55.90
23170;BME280;11753;43.144;24.714;2023-04-28T02:00:11;99922.44;;;8.18;55.67
23170;BME280;11753;43.144;24.714;2023-04-28T02:01:12;99918.84;;;8.19;55.42
23170;BME280;11753;43.144;24.714;2023-04-28T02:02:13;99920.78;;;8.17;55.32
23170;BME280;11753;43.144;24.714;2023-04-28T02:03:14;99914.09;;;8.03;55.60
23170;BME280;11753;43.144;24.714;2023-04-28T02:04:16;99916.34;;;8.08;54.63
23170;BME280;11753;43.144;24.714;2023-04-28T02:05:17;99919.38;;;8.13;54.35
23170;BME280;11753;43.144;24.714;2023-04-28T02:06:18;99916.09;;;8.20;53.97
23170;BME280;11753;43.144;24.714;2023-04-28T02:07:19;99919.34;;;8.34;53.37
23170;BME280;11753;43.144;24.714;2023-04-28T02:08:20;99921.75;;;8.37;53.47
23170;BME280;11753;43.144;24.714;2023-04-28T02:09:21;99926.16;;;8.36;53.70
23170;BME280;11753;43.144;24.714;2023-04-28T02:10:21;99917.50;;;8.24;55.98
23170;BME280;11753;43.144;24.714;2023-04-28T02:11:22;99922.28;;;8.10;56.34
23170;BME280;11753;43.144;24.714;2023-04-28T02:12:25;99917.50;;;7.94;56.96
23170;BME280;11753;43.144;24.714;2023-04-28T02:14:01;99915.19;;;8.00;56.76
23170;BME280;11753;43.144;24.714;2023-04-28T02:15:31;99918.44;;;7.93;56.76
23170;BME280;11753;43.144;24.714;2023-04-28T02:17:04;99923.16;;;7.99;58.26
23170;BME280;11753;43.144;24.714;2023-04-28T02:18:33;99921.19;;;7.91;59.59
23170;BME280;11753;43.144;24.714;2023-04-28T02:19:59;99906.44;;;7.69;59.81
23170;BME280;11753;43.144;24.714;2023-04-28T02:23:37;99904.78;;;7.68;59.98
23170;BME280;11753;43.144;24.714;2023-04-28T02:25:11;99915.25;;;7.68;60.10
23170;BME280;11753;43.144;24.714;2023-04-28T02:35:23;99918.50;;;7.61;59.24
23170;BME280;11753;43.144;24.714;2023-04-28T02:36:51;99919.34;;;7.61;59.41
23170;BME280;11753;43.144;24.714;2023-04-28T02:40:09;99929.28;;;7.47;58.46
23170;BME280;11753;43.144;24.714;2023-04-28T02:43:49;99940.94;;;7.54;58.06
23170;BME280;11753;43.144;24.714;2023-04-28T02:45:03;99944.16;;;7.57;58.92
23170;BME280;11753;43.144;24.714;2023-04-28T02:46:26;99934.34;;;7.38;59.59
23170;BME280;11753;43.144;24.714;2023-04-28T02:47:49;99940.53;;;7.37;59.54
23170;BME280;11753;43.144;24.714;2023-04-28T02:49:32;99942.59;;;7.55;58.84
23170;BME280;11753;43.144;24.714;2023-04-28T02:51:02;99953.53;;;7.28;60.10
23170;BME280;11753;43.144;24.714;2023-04-28T02:58:03;99954.06;;;7.10;64.02
23170;BME280;11753;43.144;24.714;2023-04-28T02:59:04;99947.28;;;7.08;63.70
23170;BME280;11753;43.144;24.714;2023-04-28T03:00:06;99951.69;;;7.07;63.32
23170;BME280;11753;43.144;24.714;2023-04-28T03:01:08;99945.13;;;7.13;62.41
23170;BME280;11753;43.144;24.714;2023-04-28T03:02:08;99947.38;;;7.17;62.46
23170;BME280;11753;43.144;24.714;2023-04-28T03:03:09;99959.66;;;7.17;62.44
23170;BME280;11753;43.144;24.714;2023-04-28T03:04:10;99962.75;;;7.11;63.09
23170;BME280;11753;43.144;24.714;2023-04-28T03:05:10;99951.72;;;6.85;63.85
23170;BME280;11753;43.144;24.714;2023-04-28T03:06:11;99954.81;;;6.90;63.78
23170;BME280;11753;43.144;24.714;2023-04-28T03:07:12;99954.81;;;6.90;64.23
23170;BME280;11753;43.144;24.714;2023-04-28T03:08:13;99958.88;;;6.94;64.43
23170;BME280;11753;43.144;24.714;2023-04-28T03:09:14;99960.88;;;6.90;65.14
23170;BME280;11753;43.144;24.714;2023-04-28T03:10:15;99961.72;;;6.91;64.45
23170;BME280;11753;43.144;24.714;2023-04-28T03:11:16;99963.13;;;6.95;63.72
23170;BME280;11753;43.144;24.714;2023-04-28T03:12:17;99972.44;;;6.88;65.44
23170;BME280;11753;43.144;24.714;2023-04-28T03:13:18;99971.25;;;6.81;66.68
23170;BME280;11753;43.144;24.714;2023-04-28T03:14:19;99977.44;;;6.69;66.75
23170;BME280;11753;43.144;24.714;2023-04-28T03:15:20;99969.59;;;6.69;66.26
23170;BME280;11753;43.144;24.714;2023-04-28T03:16:21;99973.88;;;6.70;65.06
23170;BME280;11753;43.144;24.714;2023-04-28T03:17:22;99981.25;;;6.65;64.08
23170;BME280;11753;43.144;24.714;2023-04-28T03:18:23;99980.06;;;6.69;63.53
23170;BME280;11753;43.144;24.714;2023-04-28T03:19:24;99983.13;;;6.62;65.42
23170;BME280;11753;43.144;24.714;2023-04-28T03:20:26;99978.88;;;6.73;66.16
23170;BME280;11753;43.144;24.714;2023-04-28T03:21:27;99986.72;;;6.73;67.22
23170;BME280;11753;43.144;24.714;2023-04-28T03:22:28;99983.63;;;6.79;66.93
23170;BME280;11753;43.144;24.714;2023-04-28T03:23:29;99985.66;;;6.86;66.88
23170;BME280;11753;43.144;24.714;2023-04-28T03:24:29;99986.47;;;6.87;66.80
23170;BME280;11753;43.144;24.714;2023-04-28T03:25:30;99982.19;;;6.75;67.78
23170;BME280;11753;43.144;24.714;2023-04-28T03:26:31;99998.38;;;6.69;68.64
23170;BME280;11753;43.144;24.714;2023-04-28T03:27:32;99999.44;;;6.66;68.69
23170;BME280;11753;43.144;24.714;2023-04-28T03:28:33;99993.84;;;6.59;68.80
23170;BME280;11753;43.144;24.714;2023-04-28T03:29:34;100000.16;;;6.68;68.34
23170;BME280;11753;43.144;24.714;2023-04-28T03:30:35;100007.16;;;6.68;68.84
23170;BME280;11753;43.144;24.714;2023-04-28T03:31:36;100008.75;;;6.01;69.72
23170;BME280;11753;43.144;24.714;2023-04-28T03:32:37;100010.69;;;5.87;70.25
23170;BME280;11753;43.144;24.714;2023-04-28T03:33:38;100008.38;;;5.95;69.65
23170;BME280;11753;43.144;24.714;2023-04-28T03:34:38;100010.41;;;6.02;69.71
23170;BME280;11753;43.144;24.714;2023-04-28T03:35:39;100018.00;;;6.05;69.99
23170;BME280;11753;43.144;24.714;2023-04-28T03:36:40;100014.22;;;6.10;69.79
23170;BME280;11753;43.144;24.714;2023-04-28T03:37:41;100018.31;;;6.25;70.19
23170;BME280;11753;43.144;24.714;2023-04-28T03:38:42;100019.16;;;6.37;69.72
23170;BME280;11753;43.144;24.714;2023-04-28T03:39:43;100010.03;;;6.53;68.84
23170;BME280;11753;43.144;24.714;2023-04-28T03:40:44;100019.19;;;6.59;68.32
23170;BME280;11753;43.144;24.714;2023-04-28T03:41:45;100019.53;;;6.66;68.96
23170;BME280;11753;43.144;24.714;2023-04-28T03:42:46;100013.47;;;6.65;69.42
23170;BME280;11753;43.144;24.714;2023-04-28T03:43:47;100017.88;;;6.65;69.79
23170;BME280;11753;43.144;24.714;2023-04-28T03:44:48;100022.09;;;6.21;73.30
23170;BME280;11753;43.144;24.714;2023-04-28T03:45:49;100028.00;;;6.00;72.49
23170;BME280;11753;43.144;24.714;2023-04-28T03:46:49;100021.50;;;6.17;72.27
23170;BME280;11753;43.144;24.714;2023-04-28T03:47:50;100029.47;;;6.27;71.85
23170;BME280;11753;43.144;24.714;2023-04-28T03:48:51;100027.84;;;6.37;71.41
23170;BME280;11753;43.144;24.714;2023-04-28T03:49:53;100027.84;;;6.48;71.46
23170;BME280;11753;43.144;24.714;2023-04-28T03:50:54;100025.81;;;6.63;70.84
23170;BME280;11753;43.144;24.714;2023-04-28T03:51:54;100031.56;;;6.79;69.27
23170;BME280;11753;43.144;24.714;2023-04-28T03:52:55;100030.13;;;6.75;69.32
23170;BME280;11753;43.144;24.714;2023-04-28T03:53:56;100038.09;;;6.96;70.13
23170;BME280;11753;43.144;24.714;2023-04-28T03:54:57;100037.47;;;6.93;69.54
23170;BME280;11753;43.144;24.714;2023-04-28T03:55:58;100042.50;;;6.96;68.46
23170;BME280;11753;43.144;24.714;2023-04-28T03:56:59;100042.63;;;6.94;68.38
23170;BME280;11753;43.144;24.714;2023-04-28T03:58:01;100042.50;;;6.96;67.44
23170;BME280;11753;43.144;24.714;2023-04-28T03:59:02;100043.44;;;7.06;67.04
23170;BME280;11753;43.144;24.714;2023-04-28T04:00:03;100042.13;;;7.11;67.15
23170;BME280;11753;43.144;24.714;2023-04-28T04:01:05;100048.06;;;7.25;66.91
23170;BME280;11753;43.144;24.714;2023-04-28T04:02:06;100040.56;;;7.31;64.11
23170;BME280;11753;43.144;24.714;2023-04-28T04:03:07;100048.25;;;7.44;63.90
23170;BME280;11753;43.144;24.714;2023-04-28T04:04:08;100040.63;;;7.52;63.74
23170;BME280;11753;43.144;24.714;2023-04-28T04:05:08;100049.78;;;7.58;63.58
23170;BME280;11753;43.144;24.714;2023-04-28T04:06:10;100056.53;;;7.71;63.61
23170;BME280;11753;43.144;24.714;2023-04-28T04:07:11;100050.53;;;7.81;63.95
23170;BME280;11753;43.144;24.714;2023-04-28T04:08:12;100050.97;;;7.86;63.99
23170;BME280;11753;43.144;24.714;2023-04-28T04:09:13;100055.72;;;7.92;64.03
23170;BME280;11753;43.144;24.714;2023-04-28T04:10:13;100053.41;;;7.98;63.61
23170;BME280;11753;43.144;24.714;2023-04-28T04:11:14;100056.84;;;8.10;62.92
23170;BME280;11753;43.144;24.714;2023-04-28T04:12:14;100058.13;;;8.16;60.49
23170;BME280;11753;43.144;24.714;2023-04-28T04:13:15;100053.59;;;7.86;57.13
23170;BME280;11753;43.144;24.714;2023-04-28T04:14:16;100058.44;;;8.02;57.29
23170;BME280;11753;43.144;24.714;2023-04-28T04:15:17;100056.13;;;8.08;58.36
23170;BME280;11753;43.144;24.714;2023-04-28T04:16:18;100060.34;;;8.20;57.69
23170;BME280;11753;43.144;24.714;2023-04-28T04:17:19;100058.38;;;8.34;57.37
23170;BME280;11753;43.144;24.714;2023-04-28T04:18:20;100071.97;;;8.39;55.70
23170;BME280;11753;43.144;24.714;2023-04-28T04:19:21;100059.31;;;8.44;54.76
23170;BME280;11753;43.144;24.714;2023-04-28T04:20:23;100061.59;;;8.58;54.63
23170;BME280;11753;43.144;24.714;2023-04-28T04:21:24;100064.78;;;8.62;54.14
23170;BME280;11753;43.144;24.714;2023-04-28T04:22:26;100067.72;;;8.68;54.11
23170;BME280;11753;43.144;24.714;2023-04-28T04:23:26;100061.66;;;8.68;53.58
23170;BME280;11753;43.144;24.714;2023-04-28T04:24:27;100054.47;;;8.70;53.61
23170;BME280;11753;43.144;24.714;2023-04-28T04:25:28;100064.66;;;8.63;52.10
23170;BME280;11753;43.144;24.714;2023-04-28T04:26:29;100070.34;;;8.68;52.56
23170;BME280;11753;43.144;24.714;2023-04-28T04:27:30;100071.03;;;8.70;53.04
23170;BME280;11753;43.144;24.714;2023-04-28T04:28:31;100076.53;;;8.58;53.25
23170;BME280;11753;43.144;24.714;2023-04-28T04:29:34;100071.56;;;8.64;53.63
23170;BME280;11753;43.144;24.714;2023-04-28T04:30:35;100062.75;;;8.65;54.55
23170;BME280;11753;43.144;24.714;2023-04-28T04:31:37;100063.59;;;8.66;52.87
23170;BME280;11753;43.144;24.714;2023-04-28T04:32:37;100070.06;;;8.71;53.01
23170;BME280;11753;43.144;24.714;2023-04-28T04:33:38;100072.47;;;8.74;52.49
23170;BME280;11753;43.144;24.714;2023-04-28T04:34:39;100070.00;;;8.82;52.72
23170;BME280;11753;43.144;24.714;2023-04-28T04:35:40;100075.84;;;8.86;52.54
23170;BME280;11753;43.144;24.714;2023-04-28T04:36:41;100074.47;;;8.92;52.72
23170;BME280;11753;43.144;24.714;2023-04-28T04:37:42;100074.91;;;8.97;52.26
23170;BME280;11753;43.144;24.714;2023-04-28T04:38:42;100069.53;;;8.98;52.02
23170;BME280;11753;43.144;24.714;2023-04-28T04:39:43;100081.69;;;8.99;51.52
23170;BME280;11753;43.144;24.714;2023-04-28T06:45:41;100136.94;;;11.04;47.88
23170;BME280;11753;43.144;24.714;2023-04-28T06:46:42;100130.78;;;11.13;47.96
23170;BME280;11753;43.144;24.714;2023-04-28T06:47:43;100136.31;;;11.20;47.85
23170;BME280;11753;43.144;24.714;2023-04-28T06:48:44;100146.78;;;11.39;48.81
23170;BME280;11753;43.144;24.714;2023-04-28T06:49:45;100140.63;;;11.48;46.40
23170;BME280;11753;43.144;24.714;2023-04-28T06:50:49;100134.78;;;11.54;46.07
23170;BME280;11753;43.144;24.714;2023-04-28T06:51:50;100148.06;;;11.63;45.64
23170;BME280;11753;43.144;24.714;2023-04-28T06:52:51;100151.91;;;11.68;44.32
23170;BME280;11753;43.144;24.714;2023-04-28T06:53:52;100152.28;;;11.83;44.42
23170;BME280;11753;43.144;24.714;2023-04-28T06:54:53;100153.13;;;12.01;44.79
23170;BME280;11753;43.144;24.714;2023-04-28T06:55:54;100149.75;;;12.27;44.89
23170;BME280;11753;43.144;24.714;2023-04-28T06:56:56;100150.56;;;12.45;43.50
23170;BME280;11753;43.144;24.714;2023-04-28T06:57:57;100143.38;;;12.55;42.58
23170;BME280;11753;43.144;24.714;2023-04-28T06:58:58;100145.03;;;12.56;43.65
23170;BME280;11753;43.144;24.714;2023-04-28T06:59:59;100153.16;;;12.37;42.53
23170;BME280;11753;43.144;24.714;2023-04-28T07:01:00;100146.50;;;12.51;41.92
23170;BME280;11753;43.144;24.714;2023-04-28T07:02:03;100149.28;;;12.49;42.05
23170;BME280;11753;43.144;24.714;2023-04-28T07:03:04;100140.91;;;12.54;42.62
23170;BME280;11753;43.144;24.714;2023-04-28T07:04:05;100144.81;;;12.67;42.71
23170;BME280;11753;43.144;24.714;2023-04-28T07:05:06;100138.28;;;12.80;43.07
23170;BME280;11753;43.144;24.714;2023-04-28T07:06:08;100153.22;;;12.89;42.56
23170;BME280;11753;43.144;24.714;2023-04-28T07:07:11;100150.78;;;12.95;42.44
23170;BME280;11753;43.144;24.714;2023-04-28T07:08:13;100148.59;;;12.91;41.45
23170;BME280;11753;43.144;24.714;2023-04-28T07:09:15;100145.00;;;12.74;41.93
23170;BME280;11753;43.144;24.714;2023-04-28T07:10:17;100154.22;;;12.70;42.48
23170;BME280;11753;43.144;24.714;2023-04-28T07:11:18;100148.16;;;12.78;42.59
23170;BME280;11753;43.144;24.714;2023-04-28T07:12:20;100147.09;;;12.88;42.35
23170;BME280;11753;43.144;24.714;2023-04-28T07:13:21;100147.81;;;12.73;42.74
23170;BME280;11753;43.144;24.714;2023-04-28T07:14:22;100155.13;;;12.79;42.52
23170;BME280;11753;43.144;24.714;2023-04-28T07:15:23;100151.13;;;12.75;42.69
23170;BME280;11753;43.144;24.714;2023-04-28T07:16:24;100155.19;;;12.87;42.38
23170;BME280;11753;43.144;24.714;2023-04-28T07:17:26;100150.41;;;12.90;42.27
23170;BME280;11753;43.144;24.714;2023-04-28T07:18:28;100153.91;;;12.99;42.36
23170;BME280;11753;43.144;24.714;2023-04-28T07:19:29;100150.69;;;13.13;42.37
23170;BME280;11753;43.144;24.714;2023-04-28T07:20:30;100143.13;;;12.92;42.29
23170;BME280;11753;43.144;24.714;2023-04-28T07:21:31;100153.44;;;12.78;42.12
23170;BME280;11753;43.144;24.714;2023-04-28T07:22:34;100148.22;;;12.60;43.14
23170;BME280;11753;43.144;24.714;2023-04-28T07:23:35;100156.28;;;12.58;43.32
23170;BME280;11753;43.144;24.714;2023-04-28T07:24:38;100150.44;;;12.29;43.21
23170;BME280;11753;43.144;24.714;2023-04-28T07:25:39;100157.44;;;12.38;43.85
23170;BME280;11753;43.144;24.714;2023-04-28T07:26:40;100159.78;;;12.41;43.59
23170;BME280;11753;43.144;24.714;2023-04-28T07:27:41;100162.78;;;12.46;43.34
23170;BME280;11753;43.144;24.714;2023-04-28T07:28:43;100157.97;;;12.24;43.63
23170;BME280;11753;43.144;24.714;2023-04-28T07:29:44;100164.69;;;12.36;42.78
23170;BME280;11753;43.144;24.714;2023-04-28T07:30:45;100158.09;;;12.40;42.39
23170;BME280;11753;43.144;24.714;2023-04-28T07:31:46;100154.66;;;12.22;42.98
23170;BME280;11753;43.144;24.714;2023-04-28T07:32:47;100155.25;;;12.16;42.88
23170;BME280;11753;43.144;24.714;2023-04-28T07:33:48;100155.34;;;12.24;42.92
23170;BME280;11753;43.144;24.714;2023-04-28T07:34:49;100164.25;;;12.23;43.46
23170;BME280;11753;43.144;24.714;2023-04-28T07:35:50;100150.81;;;12.16;43.96
23170;BME280;11753;43.144;24.714;2023-04-28T07:36:52;100159.25;;;12.20;43.57
23170;BME280;11753;43.144;24.714;2023-04-28T07:37:54;100148.47;;;12.31;44.36
23170;BME280;11753;43.144;24.714;2023-04-28T07:38:55;100159.78;;;12.41;43.79
23170;BME280;11753;43.144;24.714;2023-04-28T07:39:56;100156.13;;;12.42;44.03
23170;BME280;11753;43.144;24.714;2023-04-28T07:40:57;100158.50;;;12.45;43.93
23170;BME280;11753;43.144;24.714;2023-04-28T07:41:58;100159.91;;;11.86;43.96
23170;BME280;11753;43.144;24.714;2023-04-28T07:42:59;100149.72;;;11.64;44.42
23170;BME280;11753;43.144;24.714;2023-04-28T07:44:01;100163.09;;;11.52;45.04
23170;BME280;11753;43.144;24.714;2023-04-28T07:45:03;100147.16;;;11.17;45.03
23170;BME280;11753;43.144;24.714;2023-04-28T07:46:06;100156.66;;;11.37;46.12
23170;BME280;11753;43.144;24.714;2023-04-28T07:47:08;100146.22;;;11.08;45.79
23170;BME280;11753;43.144;24.714;2023-04-28T07:48:09;100142.16;;;10.67;46.98
23170;BME280;11753;43.144;24.714;2023-04-28T07:49:10;100139.22;;;10.70;48.30
23170;BME280;11753;43.144;24.714;2023-04-28T07:50:11;100152.28;;;10.52;47.18
23170;BME280;11753;43.144;24.714;2023-04-28T07:51:15;100153.66;;;10.56;46.89
23170;BME280;11753;43.144;24.714;2023-04-28T07:52:16;100149.75;;;10.70;46.59
23170;BME280;11753;43.144;24.714;2023-04-28T07:53:18;100143.94;;;10.76;46.85
23170;BME280;11753;43.144;24.714;2023-04-28T07:54:19;100149.44;;;10.92;47.44
23170;BME280;11753;43.144;24.714;2023-04-28T07:55:20;100154.41;;;11.05;48.04
23170;BME280;11753;43.144;24.714;2023-04-28T07:56:21;100142.72;;;11.17;49.01
23170;BME280;11753;43.144;24.714;2023-04-28T07:57:22;100152.69;;;11.14;48.11
23170;BME280;11753;43.144;24.714;2023-04-28T07:58:23;100156.63;;;11.10;47.92
23170;BME280;11753;43.144;24.714;2023-04-28T07:59:25;100145.50;;;11.16;46.87
23170;BME280;11753;43.144;24.714;2023-04-28T08:00:26;100152.38;;;11.26;47.23
23170;BME280;11753;43.144;24.714;2023-04-28T08:01:27;100152.88;;;11.40;47.17
23170;BME280;11753;43.144;24.714;2023-04-28T08:02:28;100148.84;;;11.45;47.61
23170;BME280;11753;43.144;24.714;2023-04-28T08:03:29;100150.53;;;11.64;47.89